Terminal Aerodrome Forecast
Issued by NWS Anchorage, AK

Home | Current Version | Previous Version | Text Only | Print | Product List | Glossary On
Versions: 1 2 3 4 5 6 7 8 9 10 11 12 13 14 15 16 17 18 19 20 21 22 23 24 25 26 27 28 29 30 31 32 33 34 35 36 37 38 39 40 41 42 43 44 45 46 47 48 49 50
528
FTAK31 PANC 160557 AAB
TAFANC
TAF AMD
PANC 160557Z 1606/1712 36010KT 6SM -SN FEW015 SCT035 BKN050
      TEMPO 1606/1610 3SM -SN BR SCT015 BKN030
     FM161000 34008KT 2SM -SN BR SCT015 OVC025
     FM161400 VRB04KT 1SM -SN BR SCT008 OVC012
     FM162000 36006KT 2SM -SN BR SCT010 OVC015
     FM170000 36006KT 5SM -SN BR SCT015 OVC025
     FM170600 02005KT P6SM SCT025 OVC040=

USA.gov is the U.S. government's official web portal to all federal, state and local government web resources and services.